Time;durP1;ratioP1;P1;durP2;ratioP2;P2;SDS_P1;SDS_P2;PMS_P1;PMS_P2;Temp;Humidity;BMP_temperature;BMP_pressure;BME280_temperature;BME280_humidity;BME280_pressure;Samples;Min_cycle;Max_cycle;Signal;HPM_P1;HPM_P2
2023/03/24 00:00:23;;;;;;;6.50;4.20;;;;;;;12.14;69.11;99548.38;1769447;81;25814;-48
2023/03/24 00:02:51;;;;;;;9.03;4.70;;;;;;;12.15;69.13;99549.95;1769627;81;25410;-48
2023/03/24 00:05:21;;;;;;;8.03;5.17;;;;;;;12.14;69.07;99548.38;1769481;81;27488;-51
2023/03/24 00:07:48;;;;;;;7.08;4.30;;;;;;;12.13;69.04;99548.14;1769366;81;25590;-48
2023/03/24 00:10:21;;;;;;;9.18;4.45;;;;;;;12.12;69.01;99552.78;1769478;81;25376;-48
2023/03/24 00:12:49;;;;;;;9.13;4.83;;;;;;;12.11;69.16;99553.90;1769427;81;25631;-49
2023/03/24 00:15:20;;;;;;;6.45;4.45;;;;;;;12.12;68.89;99557.39;1769474;81;25431;-49
2023/03/24 00:17:49;;;;;;;11.73;5.08;;;;;;;12.10;68.93;99554.23;1769453;81;28059;-51
2023/03/24 00:20:19;;;;;;;5.90;4.28;;;;;;;12.10;68.97;99557.73;1769374;81;25793;-48
2023/03/24 00:22:49;;;;;;;8.03;4.25;;;;;;;12.09;68.99;99557.52;1769457;81;25381;-48
2023/03/24 00:25:27;;;;;;;7.47;4.10;;;;;;;12.09;68.97;99556.16;1769448;81;25635;-50
2023/03/24 00:27:56;;;;;;;8.05;4.20;;;;;;;12.10;69.13;99555.02;1769503;81;25551;-48
2023/03/24 00:30:24;;;;;;;7.08;3.92;;;;;;;12.11;69.15;99558.53;1769686;79;27337;-48
2023/03/24 00:32:51;;;;;;;8.85;3.85;;;;;;;12.13;69.23;99561.70;1769329;81;25397;-48
2023/03/24 00:35:18;;;;;;;8.83;4.90;;;;;;;12.15;69.15;99563.50;1769398;81;25430;-50
2023/03/24 00:37:45;;;;;;;7.25;3.65;;;;;;;12.15;69.07;99564.28;1769373;81;25621;-48
2023/03/24 00:40:16;;;;;;;7.87;4.25;;;;;;;12.17;68.98;99568.59;1769352;80;25561;-48
2023/03/24 00:42:45;;;;;;;12.50;5.33;;;;;;;12.17;69.03;99573.44;1769440;81;27488;-49
2023/03/24 00:45:17;;;;;;;9.83;5.17;;;;;;;12.17;69.12;99566.66;1769537;81;27161;-49
2023/03/24 00:47:43;;;;;;;8.40;4.67;;;;;;;12.17;69.06;99564.52;1769449;81;25560;-50
2023/03/24 00:50:17;;;;;;;12.68;5.10;;;;;;;12.16;68.95;99563.73;1769444;81;25619;-48
2023/03/24 00:52:46;;;;;;;9.18;5.10;;;;;;;12.15;68.90;99564.86;1769499;81;25631;-47
2023/03/24 00:55:14;;;;;;;9.75;5.45;;;;;;;12.12;68.88;99564.17;1769373;80;27323;-48
2023/03/24 00:57:49;;;;;;;9.15;5.33;;;;;;;12.09;68.98;99556.73;1769359;81;25601;-50
2023/03/24 01:00:15;;;;;;;10.58;5.60;;;;;;;12.06;68.92;99558.76;1768800;81;25489;-48
2023/03/24 01:02:40;;;;;;;10.38;5.50;;;;;;;12.01;68.94;99554.91;1769263;81;25755;-47
2023/03/24 01:05:07;;;;;;;9.33;4.87;;;;;;;11.95;69.06;99549.70;1769627;81;25677;-52
2023/03/24 01:07:34;;;;;;;9.50;5.65;;;;;;;11.91;68.92;99549.34;1769569;81;27378;-49
2023/03/24 01:10:01;;;;;;;8.70;4.97;;;;;;;11.86;69.23;99543.55;1769481;81;27193;-50
2023/03/24 01:12:35;;;;;;;10.05;5.33;;;;;;;11.83;69.24;99539.36;1769568;81;25402;-48
2023/03/24 01:15:07;;;;;;;7.60;5.30;;;;;;;11.78;69.27;99544.42;1769554;81;25723;-49
2023/03/24 01:17:33;;;;;;;9.25;4.92;;;;;;;11.72;69.14;99545.78;1769740;81;25382;-49
2023/03/24 01:20:06;;;;;;;10.32;5.75;;;;;;;11.67;69.11;99541.92;1769606;81;27414;-48
2023/03/24 01:22:30;;;;;;;12.98;6.00;;;;;;;11.61;69.18;99550.80;1768674;81;25758;-48
2023/03/24 01:24:56;;;;;;;12.07;5.25;;;;;;;11.55;69.38;99546.17;1769599;81;25572;-48
2023/03/24 01:27:23;;;;;;;8.90;5.05;;;;;;;11.50;69.48;99545.02;1769540;81;25676;-48
2023/03/24 01:29:49;;;;;;;8.35;4.97;;;;;;;11.45;69.57;99548.51;1769568;81;25385;-48
2023/03/24 01:32:16;;;;;;;11.12;6.20;;;;;;;11.38;69.69;99543.63;1769621;81;29528;-48
2023/03/24 01:34:42;;;;;;;12.58;6.33;;;;;;;11.33;69.89;99551.95;1769535;81;33206;-49
2023/03/24 01:37:08;;;;;;;10.00;5.78;;;;;;;11.27;70.15;99542.44;1769672;81;25461;-49
2023/03/24 01:39:34;;;;;;;10.18;6.20;;;;;;;11.20;70.11;99547.84;1769496;81;25545;-49
2023/03/24 01:42:01;;;;;;;9.23;5.90;;;;;;;11.14;70.28;99551.08;1769483;80;25467;-50
2023/03/24 01:44:35;;;;;;;9.60;5.92;;;;;;;11.09;70.50;99551.28;1769536;81;27464;-48
2023/03/24 01:47:07;;;;;;;9.90;6.65;;;;;;;11.03;70.54;99550.13;1769461;81;25216;-48
2023/03/24 01:49:47;;;;;;;14.60;7.28;;;;;;;10.97;70.87;99550.08;1769618;81;25396;-48
2023/03/24 01:52:35;;;;;;;13.90;6.70;;;;;;;10.93;70.90;99562.69;1768764;81;25470;-50
2023/03/24 01:55:10;;;;;;;9.88;6.50;;;;;;;10.87;70.94;99557.80;1769536;81;25592;-50
2023/03/24 01:57:49;;;;;;;10.72;6.50;;;;;;;10.81;70.94;99551.77;1769537;81;27325;-48
2023/03/24 02:00:19;;;;;;;9.68;5.62;;;;;;;10.74;70.89;99551.50;1769596;81;25578;-48
2023/03/24 02:03:02;;;;;;;7.53;5.97;;;;;;;10.64;70.85;99548.61;1769567;81;25438;-51
2023/03/24 02:05:32;;;;;;;10.58;6.03;;;;;;;10.53;70.73;99541.44;1769527;81;25377;-50
2023/03/24 02:08:16;;;;;;;9.03;6.62;;;;;;;10.40;70.70;99537.88;1769605;81;25541;-49
2023/03/24 02:10:43;;;;;;;9.95;5.35;;;;;;;10.29;70.99;99544.16;1769385;81;29539;-49
2023/03/24 02:13:10;;;;;;;7.33;4.92;;;;;;;10.20;70.70;99539.89;1769533;81;25538;-53
2023/03/24 02:15:48;;;;;;;11.20;6.15;;;;;;;10.12;71.30;99539.39;1769466;81;25608;-49
2023/03/24 02:18:26;;;;;;;9.85;6.22;;;;;;;10.03;71.86;99544.83;1768105;81;25477;-49
2023/03/24 02:21:01;;;;;;;9.73;6.75;;;;;;;9.94;72.44;99545.40;1768931;81;25488;-49
2023/03/24 02:23:57;;;;;;;13.20;6.03;;;;;;;9.85;72.51;99533.27;1769646;81;25784;-49
2023/03/24 02:26:49;;;;;;;12.75;6.53;;;;;;;9.78;72.71;99533.77;1700573;84;25525;-48
2023/03/24 02:29:52;;;;;;;9.53;6.10;;;;;;;9.73;73.72;99525.27;1700009;84;25667;-49
2023/03/24 02:32:45;;;;;;;9.75;6.17;;;;;;;9.67;74.25;99519.01;1700629;84;25576;-49
2023/03/24 02:36:02;;;;;;;10.00;5.85;;;;;;;9.62;73.96;99518.64;1700681;84;25560;-49
2023/03/24 02:39:09;;;;;;;10.70;6.15;;;;;;;9.57;74.10;99518.81;1700651;84;27296;-52
2023/03/24 02:42:14;;;;;;;8.98;6.28;;;;;;;9.51;74.61;99521.44;1699425;84;25760;-48
2023/03/24 02:45:13;;;;;;;7.67;5.95;;;;;;;9.46;74.88;99514.85;1698614;84;25492;-49
2023/03/24 02:48:10;;;;;;;10.65;6.40;;;;;;;9.41;75.32;99522.55;1684366;85;27888;-50
2023/03/24 02:51:01;;;;;;;9.88;5.85;;;;;;;9.38;75.27;99523.75;1684662;85;25445;-48
2023/03/24 02:53:33;;;;;;;10.80;7.22;;;;;;;9.34;75.67;99527.08;1684376;85;28243;-48
2023/03/24 02:56:10;;;;;;;9.68;6.25;;;;;;;9.33;75.93;99522.00;1684475;85;25672;-49
2023/03/24 02:58:50;;;;;;;9.75;6.85;;;;;;;9.32;76.25;99522.56;1684121;85;25689;-49
2023/03/24 03:01:30;;;;;;;12.60;6.25;;;;;;;9.29;76.22;99525.11;1684226;85;25810;-49
2023/03/24 03:03:54;;;;;;;9.88;6.35;;;;;;;9.26;76.64;99527.91;1736112;82;25658;-48
2023/03/24 03:06:28;;;;;;;11.22;6.42;;;;;;;9.23;76.60;99523.67;1743246;82;27371;-49
2023/03/24 03:09:00;;;;;;;9.85;6.33;;;;;;;9.21;76.59;99515.92;1742496;82;25573;-49
2023/03/24 03:11:26;;;;;;;10.10;6.35;;;;;;;9.19;76.83;99516.78;1743284;82;25582;-49
2023/03/24 03:14:03;;;;;;;8.58;6.00;;;;;;;9.16;76.90;99519.57;1743208;82;25590;-48
2023/03/24 03:16:37;;;;;;;10.40;6.00;;;;;;;9.15;77.09;99513.14;1743187;82;25630;-49
2023/03/24 03:19:16;;;;;;;9.35;5.85;;;;;;;9.12;76.95;99518.60;1743201;82;27356;-49
2023/03/24 03:21:45;;;;;;;10.80;6.10;;;;;;;9.10;76.57;99535.67;1743151;82;25609;-49
2023/03/24 03:24:25;;;;;;;12.35;6.37;;;;;;;9.05;76.83;99537.17;1758562;81;25575;-49
2023/03/24 03:26:49;;;;;;;12.23;6.42;;;;;;;9.03;77.27;99538.62;1761389;81;25633;-48
2023/03/24 03:29:20;;;;;;;8.35;5.72;;;;;;;9.01;77.77;99532.72;1761869;81;25400;-50
2023/03/24 03:31:52;;;;;;;9.65;6.10;;;;;;;8.99;77.92;99542.50;1761906;81;27321;-50
2023/03/24 03:34:38;;;;;;;9.13;5.97;;;;;;;8.97;78.23;99542.00;1761611;81;25607;-49
2023/03/24 03:37:18;;;;;;;7.20;5.42;;;;;;;8.94;78.67;99542.09;1761709;81;25438;-49
2023/03/24 03:39:49;;;;;;;11.83;5.92;;;;;;;8.93;78.50;99537.80;1761615;81;25618;-48
2023/03/24 03:42:16;;;;;;;8.13;5.87;;;;;;;8.91;78.52;99537.89;1756867;80;25208;-48
2023/03/24 03:44:43;;;;;;;10.23;6.70;;;;;;;8.88;78.69;99539.86;1755671;81;27315;-49
2023/03/24 03:47:09;;;;;;;12.55;5.92;;;;;;;8.85;78.90;99542.63;1755585;81;25460;-49
2023/03/24 03:49:36;;;;;;;9.73;6.30;;;;;;;8.84;78.99;99545.66;1755691;81;25536;-48
2023/03/24 03:52:04;;;;;;;9.80;6.10;;;;;;;8.82;79.12;99543.81;1755625;81;26151;-49
2023/03/24 03:54:33;;;;;;;11.08;6.65;;;;;;;8.81;79.42;99540.89;1755699;81;25417;-50
2023/03/24 03:57:00;;;;;;;11.50;6.95;;;;;;;8.80;79.33;99545.47;1755755;81;27363;-49
2023/03/24 03:59:35;;;;;;;12.78;6.67;;;;;;;8.78;79.55;99537.72;1755537;81;25542;-48
2023/03/24 04:02:19;;;;;;;9.88;6.10;;;;;;;8.79;79.41;99532.55;1755673;81;25389;-49
2023/03/24 04:04:58;;;;;;;13.58;7.33;;;;;;;8.79;79.70;99531.20;1727382;82;25730;-49
2023/03/24 04:07:38;;;;;;;9.70;6.40;;;;;;;8.78;80.08;99529.63;1727470;83;25467;-49
2023/03/24 04:10:30;;;;;;;10.05;6.20;;;;;;;8.78;79.87;99534.21;1725804;83;27392;-48
2023/03/24 04:13:37;;;;;;;11.33;6.55;;;;;;;8.76;79.82;99533.17;1727383;83;25548;-48
2023/03/24 04:16:43;;;;;;;10.38;6.12;;;;;;;8.74;79.92;99538.09;1665648;85;25679;-50
2023/03/24 04:19:23;;;;;;;12.30;7.33;;;;;;;8.71;79.97;99535.23;1672809;85;25768;-48
2023/03/24 04:22:13;;;;;;;11.65;6.62;;;;;;;8.69;80.06;99535.55;1634483;87;25548;-48
2023/03/24 04:24:56;;;;;;;8.15;6.12;;;;;;;8.68;80.39;99535.30;1616012;88;27410;-49
2023/03/24 04:27:37;;;;;;;9.65;6.17;;;;;;;8.67;80.58;99539.13;1616057;88;27119;-48
2023/03/24 04:30:36;;;;;;;10.58;6.47;;;;;;;8.67;80.70;99529.69;1585672;90;25761;-50
2023/03/24 04:33:21;;;;;;;12.00;6.83;;;;;;;8.67;81.04;99531.03;1585760;90;26188;-48
2023/03/24 04:35:51;;;;;;;10.50;7.08;;;;;;;8.67;80.95;99523.51;1585656;90;25533;-50
2023/03/24 04:38:24;;;;;;;9.98;6.72;;;;;;;8.69;80.94;99523.98;1585442;90;27554;-53
2023/03/24 04:40:54;;;;;;;8.90;6.72;;;;;;;8.69;80.94;99517.23;1585888;89;25520;-50
2023/03/24 04:43:28;;;;;;;11.12;6.65;;;;;;;8.69;80.99;99516.68;1647065;86;25749;-50
2023/03/24 04:45:56;;;;;;;10.30;6.67;;;;;;;8.69;81.01;99515.89;1647233;87;25514;-50
2023/03/24 04:48:25;;;;;;;12.47;6.90;;;;;;;8.70;81.22;99504.80;1647398;87;25486;-50
2023/03/24 04:50:55;;;;;;;11.38;7.72;;;;;;;8.70;81.22;99504.80;1689206;84;27270;-49
2023/03/24 04:53:22;;;;;;;12.85;7.33;;;;;;;8.71;80.98;99505.58;1695842;84;25984;-49
2023/03/24 04:56:23;;;;;;;9.63;7.17;;;;;;;8.72;81.13;99505.83;1677691;85;25517;-49
2023/03/24 04:58:49;;;;;;;12.05;7.45;;;;;;;8.72;81.27;99505.83;1698307;84;25821;-49
2023/03/24 05:01:16;;;;;;;13.85;7.75;;;;;;;8.71;81.65;99494.80;1706796;81;25613;-48
2023/03/24 05:03:44;;;;;;;13.03;7.85;;;;;;;8.71;81.38;99496.93;1769648;81;27487;-51
2023/03/24 05:06:11;;;;;;;13.13;7.37;;;;;;;8.72;81.40;99504.48;1769700;81;25552;-53
2023/03/24 05:08:38;;;;;;;12.33;7.92;;;;;;;8.72;81.70;99495.83;1769705;81;25556;-50
2023/03/24 05:11:06;;;;;;;11.30;7.83;;;;;;;8.72;81.72;99498.53;1769647;81;26304;-49
2023/03/24 05:13:32;;;;;;;12.55;7.97;;;;;;;8.75;81.55;99499.78;1769700;81;25586;-49
2023/03/24 05:15:58;;;;;;;11.53;7.58;;;;;;;8.77;81.69;99490.84;1769654;81;28417;-51
2023/03/24 05:18:24;;;;;;;12.33;8.13;;;;;;;8.80;81.81;99488.84;1769622;81;25477;-50
2023/03/24 05:20:52;;;;;;;12.85;8.30;;;;;;;8.83;81.88;99488.78;1769668;81;25515;-52
2023/03/24 05:23:18;;;;;;;16.62;8.98;;;;;;;8.87;81.92;99494.58;1769613;81;25546;-52
2023/03/24 05:25:47;;;;;;;13.32;8.88;;;;;;;8.92;81.92;99489.56;1769727;81;25584;-50
2023/03/24 05:28:13;;;;;;;17.12;9.75;;;;;;;8.95;82.04;99486.23;1769638;81;27388;-49
2023/03/24 05:30:39;;;;;;;18.67;8.33;;;;;;;9.00;82.29;99490.69;1769685;81;25374;-49
2023/03/24 05:33:06;;;;;;;13.68;8.50;;;;;;;9.03;82.33;99488.71;1769617;81;25167;-51
2023/03/24 05:35:32;;;;;;;13.28;8.95;;;;;;;9.07;82.26;99484.25;1769717;81;25752;-49
2023/03/24 05:37:59;;;;;;;14.00;8.85;;;;;;;9.13;82.30;99482.99;1769654;81;25655;-50
2023/03/24 05:40:26;;;;;;;16.75;9.50;;;;;;;9.18;82.13;99485.53;1769632;81;27345;-51
2023/03/24 05:42:52;;;;;;;14.93;9.33;;;;;;;9.26;82.20;99483.38;1760059;80;25547;-49
2023/03/24 05:45:19;;;;;;;16.82;9.33;;;;;;;9.31;82.04;99484.56;1755644;81;25579;-49
2023/03/24 05:47:47;;;;;;;14.58;8.98;;;;;;;9.39;82.06;99480.81;1755684;81;25612;-49
2023/03/24 05:50:13;;;;;;;16.55;9.60;;;;;;;9.46;82.04;99486.52;1755797;81;25552;-48
2023/03/24 05:52:40;;;;;;;14.47;8.85;;;;;;;9.53;82.00;99490.32;1755716;81;27339;-47
2023/03/24 05:55:08;;;;;;;14.03;8.83;;;;;;;9.58;81.87;99466.39;1755641;81;27149;-49
2023/03/24 05:57:35;;;;;;;14.13;10.35;;;;;;;9.66;81.87;99465.57;1755703;81;25622;-48
2023/03/24 06:00:10;;;;;;;15.00;9.70;;;;;;;9.74;81.87;99465.32;1755713;81;25718;-48
2023/03/24 06:02:35;;;;;;;16.75;9.93;;;;;;;9.84;81.78;99476.31;1755733;81;25457;-50
2023/03/24 06:05:02;;;;;;;16.25;9.78;;;;;;;9.92;81.48;99468.73;1755756;81;27682;-49
2023/03/24 06:07:29;;;;;;;15.95;10.10;;;;;;;9.99;81.45;99472.28;1755645;81;25390;-47
2023/03/24 06:10:01;;;;;;;15.25;9.78;;;;;;;10.04;81.17;99468.05;1755693;81;25461;-49
2023/03/24 06:12:25;;;;;;;18.25;10.85;;;;;;;10.13;81.38;99472.05;1755656;81;25997;-49
2023/03/24 06:14:51;;;;;;;19.65;10.75;;;;;;;10.18;81.19;99469.16;1755723;81;25535;-49
2023/03/24 06:17:20;;;;;;;16.57;11.25;;;;;;;10.24;81.13;99473.28;1755719;81;27296;-49
2023/03/24 06:19:48;;;;;;;20.40;11.83;;;;;;;10.29;80.87;99470.39;1755622;81;25610;-49
2023/03/24 06:22:19;;;;;;;22.48;12.75;;;;;;;10.36;80.72;99472.04;1755849;81;25563;-49
2023/03/24 06:24:46;;;;;;;21.07;11.97;;;;;;;10.41;80.63;99469.14;1755704;81;25799;-50
2023/03/24 06:27:13;;;;;;;18.92;11.33;;;;;;;10.49;80.57;99466.70;1755727;81;25434;-49
2023/03/24 06:29:43;;;;;;;19.42;11.35;;;;;;;10.56;80.54;99469.14;1755701;81;27319;-49
2023/03/24 06:32:10;;;;;;;19.55;11.73;;;;;;;10.63;80.45;99467.27;1755614;81;25650;-49
2023/03/24 06:34:37;;;;;;;16.37;10.35;;;;;;;10.69;80.24;99467.28;1755734;81;25546;-49
2023/03/24 06:37:04;;;;;;;17.40;10.65;;;;;;;10.78;80.21;99475.36;1755621;81;27796;-50
2023/03/24 06:39:30;;;;;;;18.00;11.97;;;;;;;10.89;80.14;99471.11;1755745;81;25418;-53
2023/03/24 06:41:57;;;;;;;17.30;11.30;;;;;;;10.96;79.96;99465.95;1755626;81;27557;-50
2023/03/24 06:44:24;;;;;;;17.80;11.53;;;;;;;11.02;79.72;99465.99;1755663;81;27244;-49
2023/03/24 06:46:51;;;;;;;19.45;11.88;;;;;;;11.13;79.74;99468.29;1755691;81;25549;-49
2023/03/24 06:49:17;;;;;;;18.05;10.70;;;;;;;11.23;79.41;99457.62;1755712;81;25625;-49
2023/03/24 06:51:44;;;;;;;17.52;11.57;;;;;;;11.29;79.21;99461.68;1755809;81;25619;-51
2023/03/24 06:54:10;;;;;;;16.12;11.20;;;;;;;11.36;79.00;99457.89;1755673;81;27386;-49
2023/03/24 06:56:36;;;;;;;21.45;11.68;;;;;;;11.43;78.93;99456.77;1755539;81;25486;-48
2023/03/24 06:59:02;;;;;;;21.52;13.08;;;;;;;11.50;78.46;99458.36;1755301;81;25735;-48
2023/03/24 07:01:28;;;;;;;23.80;12.25;;;;;;;11.54;78.07;99451.17;1755810;81;26365;-51
2023/03/24 07:03:55;;;;;;;23.80;11.40;;;;;;;11.58;78.04;99451.28;1732456;81;25679;-51
2023/03/24 07:06:22;;;;;;;17.50;11.43;;;;;;;11.62;77.71;99460.87;1731963;81;27320;-49
2023/03/24 07:08:50;;;;;;;17.60;11.33;;;;;;;11.65;77.95;99456.15;1755623;81;25636;-51
2023/03/24 07:11:16;;;;;;;18.35;11.35;;;;;;;11.68;77.44;99460.87;1755701;81;25591;-53
2023/03/24 07:13:42;;;;;;;17.15;11.08;;;;;;;11.71;77.40;99461.02;1755673;81;26341;-50
2023/03/24 07:16:08;;;;;;;30.37;12.82;;;;;;;11.76;77.40;99467.57;1755664;81;25596;-50
2023/03/24 07:18:34;;;;;;;25.08;11.40;;;;;;;11.79;77.07;99463.38;1755641;81;27281;-50
2023/03/24 07:21:01;;;;;;;18.98;10.88;;;;;;;11.82;76.94;99460.58;1755619;81;25615;-53
2023/03/24 07:23:29;;;;;;;21.50;11.22;;;;;;;11.86;76.88;99469.03;1755724;81;25404;-50
2023/03/24 07:25:55;;;;;;;21.05;11.10;;;;;;;11.87;76.70;99466.55;1755635;81;27749;-53
2023/03/24 07:28:21;;;;;;;20.30;11.60;;;;;;;11.92;76.57;99473.71;1755721;81;25610;-48
2023/03/24 07:30:48;;;;;;;17.70;11.38;;;;;;;11.94;76.50;99479.00;1755691;81;27365;-48
2023/03/24 07:33:14;;;;;;;17.70;10.72;;;;;;;11.97;76.47;99473.48;1755682;81;25375;-51
2023/03/24 07:35:41;;;;;;;22.07;11.30;;;;;;;11.96;76.30;99474.03;1755747;81;25609;-48
2023/03/24 07:38:09;;;;;;;20.97;11.18;;;;;;;11.96;76.25;99477.31;1755645;81;25607;-48
2023/03/24 07:40:35;;;;;;;21.73;11.83;;;;;;;11.99;76.67;99475.86;1755716;81;25447;-48
2023/03/24 07:43:04;;;;;;;17.30;11.00;;;;;;;12.00;76.60;99475.50;1755931;81;27299;-48
2023/03/24 07:45:31;;;;;;;20.30;10.93;;;;;;;11.96;76.58;99471.32;1756676;81;25566;-49
2023/03/24 07:48:00;;;;;;;16.65;10.93;;;;;;;11.99;76.72;99479.36;1756534;81;25407;-48
2023/03/24 07:50:27;;;;;;;16.73;9.98;;;;;;;11.94;76.87;99470.09;1756284;81;25632;-48
2023/03/24 07:52:54;;;;;;;20.75;10.20;;;;;;;11.94;77.22;99472.23;1756496;81;25386;-48
2023/03/24 07:55:20;;;;;;;19.85;11.12;;;;;;;11.92;77.69;99471.00;1756424;81;27301;-49
2023/03/24 07:57:49;;;;;;;19.30;10.58;;;;;;;11.93;78.04;99474.70;1756382;81;25435;-48
2023/03/24 08:00:18;;;;;;;16.02;10.43;;;;;;;11.89;78.07;99463.52;1756436;81;25603;-49
2023/03/24 08:02:48;;;;;;;19.23;10.48;;;;;;;11.88;78.63;99459.98;1756423;81;25620;-48
2023/03/24 08:05:18;;;;;;;17.55;10.48;;;;;;;11.86;78.91;99452.77;1756416;81;25643;-49
2023/03/24 08:07:52;;;;;;;17.55;9.48;;;;;;;11.85;79.20;99449.85;1756628;81;28230;-49
2023/03/24 08:10:16;;;;;;;15.40;9.73;;;;;;;11.87;79.47;99450.88;1755858;81;25628;-48
2023/03/24 08:12:42;;;;;;;18.35;10.63;;;;;;;11.85;79.87;99450.39;1756539;81;25382;-52
2023/03/24 08:15:08;;;;;;;20.17;11.83;;;;;;;11.81;80.15;99448.92;1756436;81;25620;-50
2023/03/24 08:17:36;;;;;;;17.80;10.35;;;;;;;11.79;80.62;99448.48;1756466;81;25390;-49
2023/03/24 08:20:08;;;;;;;15.63;10.38;;;;;;;11.77;81.02;99447.45;1756451;81;27329;-47
2023/03/24 08:22:38;;;;;;;21.70;11.22;;;;;;;11.73;81.51;99443.05;1756379;81;25581;-49
2023/03/24 08:25:05;;;;;;;16.57;10.10;;;;;;;11.70;82.08;99442.39;1756448;81;25549;-49
2023/03/24 08:27:32;;;;;;;18.70;11.57;;;;;;;11.66;82.48;99441.46;1756452;81;25690;-50
2023/03/24 08:29:58;;;;;;;15.20;10.18;;;;;;;11.62;82.69;99437.28;1756440;81;25545;-50
2023/03/24 08:32:24;;;;;;;16.55;10.85;;;;;;;11.62;83.16;99431.09;1756432;81;27299;-50
2023/03/24 08:34:51;;;;;;;24.32;12.78;;;;;;;11.62;83.58;99430.52;1756362;81;25845;-51
2023/03/24 08:37:17;;;;;;;18.60;11.75;;;;;;;11.61;84.08;99424.86;1756395;81;25211;-47
2023/03/24 08:39:43;;;;;;;18.05;11.30;;;;;;;11.66;85.05;99424.63;1756411;81;26471;-49
2023/03/24 08:42:09;;;;;;;18.27;11.95;;;;;;;11.77;85.41;99420.94;1756421;81;25589;-49
2023/03/24 08:44:36;;;;;;;23.32;12.07;;;;;;;11.83;85.97;99416.08;1768934;80;27305;-50
2023/03/24 08:47:02;;;;;;;20.88;12.05;;;;;;;11.89;85.89;99404.68;1769333;81;25555;-46
2023/03/24 08:49:28;;;;;;;20.82;13.25;;;;;;;11.87;85.83;99398.81;1769512;81;25425;-49
2023/03/24 08:51:55;;;;;;;18.55;12.23;;;;;;;11.90;86.48;99390.55;1769349;81;25664;-48
2023/03/24 08:54:23;;;;;;;24.77;13.18;;;;;;;11.91;86.04;99386.19;1769520;81;25606;-49
2023/03/24 08:56:50;;;;;;;21.05;13.18;;;;;;;11.94;86.95;99375.24;1769376;81;27306;-50
2023/03/24 08:59:16;;;;;;;23.60;13.90;;;;;;;11.96;87.29;99375.69;1769343;81;25599;-48
2023/03/24 09:01:42;;;;;;;21.45;13.93;;;;;;;11.98;87.43;99378.84;1769376;81;25437;-53
2023/03/24 09:04:09;;;;;;;23.62;13.93;;;;;;;12.00;87.13;99375.22;1769369;81;25646;-50
2023/03/24 09:06:35;;;;;;;22.42;12.58;;;;;;;11.98;86.86;99377.48;1769435;81;25457;-53
2023/03/24 09:09:02;;;;;;;23.20;13.35;;;;;;;11.93;87.00;99363.59;1769443;81;27323;-50
2023/03/24 09:11:28;;;;;;;19.48;13.35;;;;;;;11.93;87.17;99364.17;1769343;81;25542;-52
2023/03/24 09:13:54;;;;;;;22.55;13.48;;;;;;;11.93;87.37;99349.27;1769413;81;25584;-52
2023/03/24 09:16:22;;;;;;;19.00;12.47;;;;;;;11.93;87.23;99343.27;1769348;81;27836;-49
2023/03/24 09:18:48;;;;;;;22.13;13.38;;;;;;;11.96;87.26;99343.17;1769488;81;25589;-49
2023/03/24 09:21:16;;;;;;;22.15;13.20;;;;;;;12.01;87.23;99341.58;1769571;81;27319;-50
2023/03/24 09:23:42;;;;;;;19.85;12.70;;;;;;;12.02;87.43;99335.05;1769510;81;25571;-49
2023/03/24 09:26:09;;;;;;;24.98;14.15;;;;;;;12.08;87.79;99323.39;1769592;81;25552;-49
2023/03/24 09:28:35;;;;;;;19.40;11.90;;;;;;;12.17;87.96;99327.31;1769526;81;25758;-48
2023/03/24 09:31:05;;;;;;;19.05;12.88;;;;;;;12.29;88.65;99328.08;1769585;81;25569;-50
2023/03/24 09:33:33;;;;;;;24.43;13.80;;;;;;;12.44;88.36;99334.68;1769438;81;27328;-50
2023/03/24 09:36:04;;;;;;;22.90;12.90;;;;;;;12.62;88.21;99329.77;1769605;81;25618;-51
2023/03/24 09:38:32;;;;;;;20.05;12.53;;;;;;;13.02;89.13;99317.23;1769574;81;25615;-50
2023/03/24 09:41:01;;;;;;;17.30;10.30;;;;;;;13.98;90.81;99328.27;1769715;81;25677;-50
2023/03/24 09:43:45;;;;;;;20.50;11.57;;;;;;;14.45;86.44;99323.78;1764557;80;25439;-48
2023/03/24 09:46:34;;;;;;;19.65;11.30;;;;;;;14.64;83.42;99308.07;1755804;81;27388;-50
2023/03/24 09:49:00;;;;;;;17.07;10.15;;;;;;;14.88;82.30;99309.67;1755842;81;25482;-60
2023/03/24 09:51:34;;;;;;;17.02;10.18;;;;;;;15.25;81.51;99291.98;1755738;81;25434;-52
2023/03/24 09:54:32;;;;;;;16.93;10.13;;;;;;;15.45;81.06;99294.06;1755735;81;25678;-54
2023/03/24 09:56:59;;;;;;;15.75;9.53;;;;;;;15.71;79.99;99297.94;1755768;81;25617;-54
2023/03/24 09:59:38;;;;;;;13.30;9.50;;;;;;;15.95;78.32;99300.25;1732212;81;27331;-52
2023/03/24 10:02:15;;;;;;;12.28;8.83;;;;;;;15.82;76.31;99283.92;1754888;81;25759;-56
2023/03/24 10:04:41;;;;;;;14.93;9.08;;;;;;;15.71;76.25;99281.00;1755799;81;25597;-57
2023/03/24 10:07:23;;;;;;;16.57;10.23;;;;;;;15.74;76.78;99290.40;1755678;81;25626;-61
2023/03/24 10:09:59;;;;;;;13.53;8.98;;;;;;;15.73;75.26;99286.09;1755799;81;25427;-62
2023/03/24 10:12:37;;;;;;;17.52;9.15;;;;;;;15.78;76.02;99276.26;1755780;81;27447;-62
2023/03/24 10:15:20;;;;;;;15.83;9.15;;;;;;;15.94;75.91;99267.33;1755679;81;25263;-62
2023/03/24 10:18:13;;;;;;;18.48;9.50;;;;;;;16.04;75.95;99268.63;1755776;81;25419;-61
2023/03/24 10:21:12;;;;;;;13.28;8.78;;;;;;;16.25;74.63;99266.73;1755733;81;25622;-63
2023/03/24 10:24:15;;;;;;;12.75;8.65;;;;;;;16.18;73.16;99266.66;1698547;84;25677;-62
2023/03/24 10:26:47;;;;;;;13.30;8.73;;;;;;;16.00;72.27;99269.14;1698490;84;27307;-62
2023/03/24 10:29:24;;;;;;;13.60;9.05;;;;;;;15.80;73.22;99270.66;1698396;84;25663;-63
2023/03/24 10:32:21;;;;;;;11.33;7.72;;;;;;;15.64;73.20;99257.73;1698534;84;25244;-63
2023/03/24 10:35:08;;;;;;;13.88;8.00;;;;;;;15.56;73.89;99258.78;1698348;84;25503;-62
2023/03/24 10:37:30;;;;;;;9.55;7.40;;;;;;;15.48;73.71;99251.09;1697388;84;25584;-63
2023/03/24 10:39:59;;;;;;;9.93;6.45;;;;;;;15.42;73.36;99257.42;1698427;84;27502;-62
2023/03/24 10:42:30;;;;;;;10.90;6.90;;;;;;;15.39;73.98;99254.64;1698513;84;25595;-62
2023/03/24 10:44:58;;;;;;;9.23;6.50;;;;;;;15.40;74.12;99245.33;1703840;84;25621;-62
2023/03/24 10:47:29;;;;;;;9.60;6.92;;;;;;;15.42;74.09;99252.55;1704709;84;25705;-63
2023/03/24 10:50:04;;;;;;;12.68;7.62;;;;;;;15.41;74.33;99249.61;1704784;84;25678;-63
2023/03/24 10:52:41;;;;;;;11.00;6.45;;;;;;;15.39;74.84;99239.66;1704831;84;27915;-63
2023/03/24 10:55:17;;;;;;;11.15;7.65;;;;;;;15.36;75.18;99241.19;1704680;84;25712;-63
2023/03/24 10:57:49;;;;;;;10.25;7.58;;;;;;;15.35;75.65;99239.61;1704493;84;25474;-63
2023/03/24 11:00:28;;;;;;;13.78;7.87;;;;;;;15.35;76.16;99232.02;1728094;81;25779;-63
2023/03/24 11:03:12;;;;;;;12.55;7.72;;;;;;;15.34;76.13;99242.70;1762734;81;32340;-63
2023/03/24 11:05:41;;;;;;;12.55;7.55;;;;;;;15.32;75.54;99243.06;1762484;81;27318;-64
2023/03/24 11:08:28;;;;;;;13.05;8.30;;;;;;;15.28;75.52;99237.56;1730643;82;25401;-63
2023/03/24 11:10:55;;;;;;;11.45;7.67;;;;;;;15.25;75.39;99230.11;1732164;82;25458;-63
2023/03/24 11:13:32;;;;;;;12.98;7.25;;;;;;;15.23;75.35;99228.92;1762417;81;25643;-64
2023/03/24 11:16:16;;;;;;;11.25;7.03;;;;;;;15.22;75.48;99234.95;1762439;81;25457;-62
2023/03/24 11:19:07;;;;;;;11.08;7.45;;;;;;;15.20;75.22;99222.25;1762428;81;27362;-62
2023/03/24 11:21:38;;;;;;;11.05;8.23;;;;;;;15.21;74.92;99225.20;1760340;81;25602;-63
2023/03/24 11:24:15;;;;;;;10.72;7.17;;;;;;;15.18;74.74;99223.20;1762454;81;25606;-62
2023/03/24 11:27:02;;;;;;;10.82;7.33;;;;;;;15.18;74.82;99221.06;1762453;81;25716;-62
2023/03/24 11:29:38;;;;;;;9.18;7.53;;;;;;;15.15;74.49;99222.56;1762463;81;25426;-61
2023/03/24 11:32:12;;;;;;;11.57;7.33;;;;;;;15.12;74.54;99214.56;1762318;81;29543;-62
2023/03/24 11:34:47;;;;;;;13.10;7.35;;;;;;;15.12;74.41;99204.26;1757963;81;25611;-62
2023/03/24 11:37:32;;;;;;;12.18;7.28;;;;;;;15.13;74.42;99204.45;1762386;81;25454;-62
2023/03/24 11:40:22;;;;;;;12.82;6.78;;;;;;;15.16;74.40;99200.22;1762445;81;25662;-62
2023/03/24 11:42:59;;;;;;;11.63;7.33;;;;;;;15.18;74.43;99198.69;1762446;81;25565;-63
2023/03/24 11:45:38;;;;;;;11.10;7.30;;;;;;;15.21;74.16;99188.43;1769006;80;27321;-63
2023/03/24 11:48:16;;;;;;;10.60;7.10;;;;;;;15.22;73.81;99187.29;1769488;81;27176;-62
2023/03/24 11:50:44;;;;;;;12.73;6.72;;;;;;;15.24;73.69;99177.39;1759606;81;25459;-62